createdAt,value
2023-05-15T00:01:44.370Z,100110.16
2023-05-15T00:04:12.018Z,100118.41
2023-05-15T00:06:39.729Z,100117.75
2023-05-15T00:09:07.923Z,100106.94
2023-05-15T00:11:37.025Z,100111.31
2023-05-15T00:14:04.733Z,100114.25
2023-05-15T00:16:32.446Z,100111.88
2023-05-15T00:19:00.249Z,100103.47
2023-05-15T00:21:28.008Z,100099.38
2023-05-15T00:23:56.852Z,100099.69
2023-05-15T00:26:24.502Z,100098.47
2023-05-15T00:28:53.577Z,100102.72
2023-05-15T00:31:21.244Z,100103.25
2023-05-15T00:33:48.885Z,100095.31
2023-05-15T00:36:17.480Z,100090.97
2023-05-15T00:38:45.389Z,100096.44
2023-05-15T00:41:13.231Z,100093.16
2023-05-15T00:43:41.142Z,100093.22
2023-05-15T00:46:10.717Z,100089.06
2023-05-15T00:48:38.660Z,100091.50
2023-05-15T00:51:06.440Z,100083.72
2023-05-15T00:53:34.053Z,100087.34
2023-05-15T00:56:02.021Z,100085.00
2023-05-15T00:58:30.462Z,100083.50
2023-05-15T01:00:58.133Z,100080.84
2023-05-15T01:03:27.288Z,100082.84
2023-05-15T01:05:55.192Z,100087.31
2023-05-15T01:08:27.400Z,100079.34
2023-05-15T01:10:55.443Z,100084.09
2023-05-15T01:13:23.530Z,100073.66
2023-05-15T01:15:51.358Z,100079.97
2023-05-15T01:18:19.344Z,100067.81
2023-05-15T01:21:03.066Z,100069.00
2023-05-15T01:23:39.921Z,100069.69
2023-05-15T01:26:22.859Z,100062.50
2023-05-15T01:28:57.469Z,100051.94
2023-05-15T01:31:25.497Z,100057.97
2023-05-15T01:33:55.800Z,100057.41
2023-05-15T01:36:27.841Z,100065.44
2023-05-15T01:38:59.720Z,100058.34
2023-05-15T01:41:29.202Z,100063.47
2023-05-15T01:44:01.835Z,100059.50
2023-05-15T01:46:31.450Z,100058.81
2023-05-15T01:49:01.279Z,100050.34
2023-05-15T01:51:29.122Z,100051.41
2023-05-15T01:53:59.264Z,100052.09
2023-05-15T01:56:27.584Z,100042.41
2023-05-15T01:58:56.503Z,100051.25
2023-05-15T02:01:26.173Z,100053.91
2023-05-15T02:03:54.217Z,100054.84
2023-05-15T02:06:22.323Z,100053.09
2023-05-15T02:08:50.256Z,100049.25
2023-05-15T02:11:17.887Z,100048.28
2023-05-15T02:13:47.164Z,100052.59
2023-05-15T02:16:14.877Z,100046.78
2023-05-15T02:18:44.001Z,100041.75
2023-05-15T02:21:11.653Z,100047.47
2023-05-15T02:23:40.782Z,100037.28
2023-05-15T02:26:13.498Z,100041.81
2023-05-15T02:28:45.693Z,100040.13
2023-05-15T02:31:15.572Z,100038.66
2023-05-15T02:33:46.906Z,100037.03
2023-05-15T02:36:17.842Z,100045.19
2023-05-15T02:38:47.805Z,100034.81
2023-05-15T02:41:16.407Z,99957.25
2023-05-15T02:43:44.876Z,100042.88
2023-05-15T02:46:14.547Z,100036.66
2023-05-15T02:48:42.557Z,100028.75
2023-05-15T02:51:11.595Z,100034.41
2023-05-15T02:53:40.560Z,100032.53
2023-05-15T02:56:08.257Z,100029.13
2023-05-15T02:58:36.191Z,100033.41
2023-05-15T03:01:04.458Z,100038.19
2023-05-15T03:03:32.181Z,100030.91
2023-05-15T03:06:00.882Z,100028.34
2023-05-15T03:08:30.140Z,100021.84
2023-05-15T03:10:58.324Z,100027.69
2023-05-15T03:13:26.166Z,100023.84
2023-05-15T03:15:54.064Z,100021.53
2023-05-15T03:18:21.746Z,100023.22
2023-05-15T03:20:52.566Z,100018.72
2023-05-15T03:23:20.198Z,100022.88
2023-05-15T03:25:49.285Z,100028.09
2023-05-15T03:28:17.000Z,100026.03
2023-05-15T03:30:44.978Z,100017.56
2023-05-15T03:33:12.586Z,100017.44
2023-05-15T03:35:40.210Z,100020.91
2023-05-15T03:38:07.742Z,100027.81
2023-05-15T03:40:35.671Z,100026.88
2023-05-15T03:43:06.274Z,100018.84
2023-05-15T03:45:34.519Z,100018.50
2023-05-15T03:48:02.216Z,100010.16
2023-05-15T03:50:30.978Z,100012.81
2023-05-15T03:53:00.367Z,100013.91
2023-05-15T03:55:28.227Z,100015.25
2023-05-15T03:57:55.926Z,100009.72
2023-05-15T04:00:25.221Z,100014.84
2023-05-15T04:02:53.046Z,100012.97
2023-05-15T04:05:21.793Z,100012.91
2023-05-15T04:07:49.612Z,100019.09
2023-05-15T04:10:17.216Z,100016.78
2023-05-15T04:12:44.834Z,100014.56
2023-05-15T04:15:16.356Z,100017.56
2023-05-15T04:17:45.565Z,100005.28
2023-05-15T04:20:14.134Z,100010.22
2023-05-15T04:22:41.820Z,100013.81
2023-05-15T04:25:11.132Z,100006.41
2023-05-15T04:27:38.855Z,100001.88
2023-05-15T04:30:06.986Z,100001.56
2023-05-15T04:32:34.790Z,100006.78
2023-05-15T04:35:05.423Z,100006.72
2023-05-15T04:37:33.203Z,100009.63
2023-05-15T04:40:00.802Z,100005.56
2023-05-15T04:42:28.844Z,100010.66
2023-05-15T04:44:57.114Z,100007.97
2023-05-15T04:47:24.760Z,100008.06
2023-05-15T04:49:52.412Z,100009.41
2023-05-15T04:52:21.534Z,100008.47
2023-05-15T04:54:50.987Z,100018.94
2023-05-15T04:57:18.859Z,100013.28
2023-05-15T04:59:46.465Z,100012.13
2023-05-15T05:02:14.249Z,100011.00
2023-05-15T05:04:43.425Z,100011.75
2023-05-15T05:07:11.032Z,99999.91
2023-05-15T05:09:40.877Z,100004.16
2023-05-15T05:12:09.163Z,100002.16
2023-05-15T05:14:36.832Z,100008.47
2023-05-15T05:17:04.653Z,100005.16
2023-05-15T05:19:32.239Z,100007.09
2023-05-15T05:22:04.536Z,100003.06
2023-05-15T05:24:32.567Z,99999.75
2023-05-15T05:27:01.544Z,100001.31
2023-05-15T05:29:30.550Z,100000.06
2023-05-15T05:31:58.353Z,100009.78
2023-05-15T05:34:25.950Z,100012.44
2023-05-15T05:36:53.649Z,100008.75
2023-05-15T05:39:21.859Z,100008.25
2023-05-15T05:41:49.724Z,100008.25
2023-05-15T05:44:18.716Z,100002.47
2023-05-15T05:46:46.356Z,99998.81
2023-05-15T05:49:13.864Z,100001.31
2023-05-15T05:51:41.486Z,100000.56
2023-05-15T05:54:09.110Z,99993.03
2023-05-15T05:56:36.710Z,99996.44
2023-05-15T05:59:04.686Z,99999.84
2023-05-15T06:01:33.734Z,100002.78
2023-05-15T06:04:01.491Z,100000.31
2023-05-15T06:06:29.228Z,100003.78
2023-05-15T06:08:57.102Z,99997.06
2023-05-15T06:11:25.509Z,99993.50
2023-05-15T06:13:53.362Z,99992.25
2023-05-15T06:16:21.044Z,99997.19
2023-05-15T06:18:50.067Z,99997.69
2023-05-15T06:21:17.757Z,99997.19
2023-05-15T06:23:45.773Z,99999.47
2023-05-15T06:26:13.377Z,99986.28
2023-05-15T06:28:41.017Z,100000.25
2023-05-15T06:31:08.655Z,99996.31
2023-05-15T06:33:36.281Z,99999.34
2023-05-15T06:36:05.423Z,99993.38
2023-05-15T06:38:33.072Z,100000.09
2023-05-15T06:41:00.682Z,99996.94
2023-05-15T06:43:28.336Z,99998.13
2023-05-15T06:45:55.991Z,99998.16
2023-05-15T06:48:23.570Z,100001.31
2023-05-15T06:50:51.470Z,99991.97
2023-05-15T06:53:21.008Z,99996.72
2023-05-15T06:55:48.642Z,99999.81
2023-05-15T06:58:17.914Z,99999.63
2023-05-15T07:00:45.526Z,99997.84
2023-05-15T07:03:14.328Z,99995.56
2023-05-15T07:05:42.311Z,99995.38
2023-05-15T07:08:09.947Z,99992.75
2023-05-15T07:10:39.205Z,99981.47
2023-05-15T07:13:06.991Z,99990.75
2023-05-15T07:15:34.671Z,99988.34
2023-05-15T07:18:02.627Z,99983.81
2023-05-15T07:20:32.489Z,99999.94
2023-05-15T07:23:01.923Z,99991.31
2023-05-15T07:25:29.649Z,99984.94
2023-05-15T07:27:58.664Z,99983.97
2023-05-15T07:30:26.691Z,99988.03
2023-05-15T07:32:54.484Z,99983.66
2023-05-15T07:35:22.111Z,99983.13
2023-05-15T07:37:49.764Z,99982.63
2023-05-15T07:40:17.389Z,99983.00
2023-05-15T07:42:45.432Z,99981.16
2023-05-15T07:45:14.455Z,99977.97
2023-05-15T07:47:45.798Z,99977.50
2023-05-15T07:50:13.515Z,99977.63
2023-05-15T07:52:41.369Z,99977.88
2023-05-15T07:55:09.478Z,99977.34
2023-05-15T07:57:37.213Z,99974.66
2023-05-15T08:00:10.266Z,99964.63
2023-05-15T08:02:46.214Z,99975.91
2023-05-15T08:05:14.117Z,99979.50
2023-05-15T08:07:41.713Z,99972.44
2023-05-15T08:10:09.712Z,99967.72
2023-05-15T08:12:37.515Z,99963.22
2023-05-15T08:15:05.310Z,99957.03
2023-05-15T08:17:32.936Z,99959.13
2023-05-15T08:20:02.063Z,99957.91
2023-05-15T08:22:30.643Z,99957.06
2023-05-15T08:24:58.474Z,99955.88
2023-05-15T08:27:26.262Z,99950.28
2023-05-15T08:29:54.700Z,99945.56
2023-05-15T08:32:22.504Z,99949.41
2023-05-15T08:34:50.464Z,99949.72
2023-05-15T08:37:19.454Z,99955.78
2023-05-15T08:39:47.142Z,99948.97
2023-05-15T08:42:19.540Z,99943.31
2023-05-15T08:44:47.382Z,99946.25
2023-05-15T08:47:15.292Z,99935.06
2023-05-15T08:49:47.466Z,99943.44
2023-05-15T08:52:16.221Z,99928.53
2023-05-15T08:54:47.928Z,99931.66
2023-05-15T08:57:16.472Z,99935.22
2023-05-15T08:59:44.336Z,99926.69
2023-05-15T09:02:12.123Z,99926.22
2023-05-15T09:04:39.931Z,99923.56
2023-05-15T09:07:07.578Z,99920.59
2023-05-15T09:09:35.374Z,99925.28
2023-05-15T09:12:04.516Z,99922.31
2023-05-15T09:14:32.559Z,99923.38
2023-05-15T09:17:00.219Z,99922.56
2023-05-15T09:19:28.503Z,99915.22
2023-05-15T09:21:56.183Z,99920.38
2023-05-15T09:24:24.955Z,99917.41
2023-05-15T09:27:03.004Z,99924.59
2023-05-15T09:29:33.137Z,99921.22
2023-05-15T09:32:03.825Z,99918.34
2023-05-15T09:34:32.438Z,99920.56
2023-05-15T09:37:00.090Z,99923.13
2023-05-15T09:39:27.714Z,99927.19
2023-05-15T09:41:55.671Z,99919.34
2023-05-15T09:44:25.814Z,99920.69
2023-05-15T09:46:54.975Z,99918.59
2023-05-15T09:49:22.773Z,99917.13
2023-05-15T09:51:50.868Z,99918.22
2023-05-15T09:54:19.614Z,99925.38
2023-05-15T09:56:47.926Z,99917.56
2023-05-15T09:59:16.428Z,99921.72
2023-05-15T10:01:45.602Z,99916.53
2023-05-15T10:04:15.045Z,99906.91
2023-05-15T10:06:43.646Z,99903.91
2023-05-15T10:09:11.611Z,99902.94
2023-05-15T10:11:40.111Z,99892.34
2023-05-15T10:14:08.770Z,99903.59
2023-05-15T10:16:37.264Z,99891.88
2023-05-15T10:19:05.789Z,99895.25
2023-05-15T10:21:35.912Z,99888.25
2023-05-15T10:24:04.631Z,99885.34
2023-05-15T10:26:36.382Z,99881.19
2023-05-15T10:29:05.950Z,99878.78
2023-05-15T10:31:34.066Z,99887.44
2023-05-15T10:34:01.992Z,99881.66
2023-05-15T10:36:29.755Z,99879.78
2023-05-15T10:38:59.235Z,99884.94
2023-05-15T10:41:27.960Z,99875.13
2023-05-15T10:43:56.373Z,99868.41
2023-05-15T10:46:24.120Z,99870.41
2023-05-15T10:48:52.101Z,99876.72
2023-05-15T10:51:20.364Z,99872.19
2023-05-15T10:53:48.006Z,99876.50
2023-05-15T10:56:17.608Z,99867.34
2023-05-15T10:58:47.270Z,99858.13
2023-05-15T11:01:32.043Z,99860.53
2023-05-15T11:04:06.759Z,99860.78
2023-05-15T11:06:35.017Z,99860.75
2023-05-15T11:09:21.068Z,99854.72
2023-05-15T11:11:57.150Z,99858.44
2023-05-15T11:17:00.212Z,99852.19
2023-05-15T11:19:33.247Z,99849.47
2023-05-15T11:22:01.911Z,99855.31
2023-05-15T11:24:30.630Z,99855.78
2023-05-15T11:27:03.149Z,99850.69
2023-05-15T11:29:31.486Z,99845.25
2023-05-15T11:31:59.657Z,99841.78
2023-05-15T11:34:31.114Z,99838.69
2023-05-15T11:36:59.472Z,99838.13
2023-05-15T11:39:27.419Z,99829.41
2023-05-15T11:41:55.356Z,99830.81
2023-05-15T11:44:24.823Z,99837.91
2023-05-15T11:46:52.475Z,99834.81
2023-05-15T11:49:20.601Z,99832.63
2023-05-15T11:51:49.210Z,99834.59
2023-05-15T11:54:17.819Z,99831.69
2023-05-15T11:56:46.003Z,99835.50
2023-05-15T11:59:14.644Z,99835.50
2023-05-15T12:01:45.440Z,99826.06
2023-05-15T12:04:14.293Z,99821.91
2023-05-15T12:06:44.461Z,99820.44
2023-05-15T12:09:16.147Z,99817.00
2023-05-15T12:11:48.670Z,99806.66
2023-05-15T12:14:16.305Z,99817.69
2023-05-15T12:16:45.388Z,99808.22
2023-05-15T12:19:13.225Z,99815.84
2023-05-15T12:21:47.041Z,99816.44
2023-05-15T12:24:14.637Z,99814.22
2023-05-15T12:26:42.378Z,99812.78
2023-05-15T12:29:10.311Z,99815.72
2023-05-15T12:31:38.417Z,99808.41
2023-05-15T12:34:08.008Z,99805.84
2023-05-15T12:36:35.646Z,99805.19
2023-05-15T12:39:06.300Z,99808.44
2023-05-15T12:41:34.031Z,99808.63
2023-05-15T12:44:01.612Z,99808.63
2023-05-15T12:46:31.706Z,99815.28
2023-05-15T12:48:59.496Z,99816.91
2023-05-15T12:51:29.963Z,99817.06
2023-05-15T12:53:58.849Z,99818.72
2023-05-15T12:56:26.548Z,99823.56
2023-05-15T12:58:55.491Z,99830.72
2023-05-15T13:01:23.358Z,99826.34
2023-05-15T13:03:51.697Z,99834.03
2023-05-15T13:06:19.906Z,99828.84
2023-05-15T13:08:49.058Z,99829.03
2023-05-15T13:11:18.309Z,99823.75
2023-05-15T13:13:46.780Z,99827.19
2023-05-15T13:16:21.528Z,99829.53
2023-05-15T13:18:49.431Z,99828.28
2023-05-15T13:21:17.176Z,99835.31
2023-05-15T13:23:44.812Z,99834.69
2023-05-15T13:26:13.883Z,99754.63
2023-05-15T13:28:41.656Z,99833.16
2023-05-15T13:31:09.406Z,99828.72
2023-05-15T13:33:37.577Z,99840.81
2023-05-15T13:36:05.535Z,99847.88
2023-05-15T13:38:33.454Z,99873.63
2023-05-15T13:41:01.183Z,99892.00
2023-05-15T13:43:30.152Z,99896.53
2023-05-15T13:45:57.825Z,99900.41
2023-05-15T13:48:25.633Z,99897.41
2023-05-15T13:50:53.352Z,99889.66
2023-05-15T13:53:21.289Z,99892.47
2023-05-15T13:55:49.017Z,99897.41
2023-05-15T13:58:16.622Z,99905.00
2023-05-15T14:00:45.741Z,99904.72
2023-05-15T14:03:15.184Z,99916.22
2023-05-15T14:05:43.152Z,99901.47
2023-05-15T14:08:10.976Z,99902.53
2023-05-15T14:10:38.622Z,99901.88
2023-05-15T14:13:06.339Z,99905.84
2023-05-15T14:15:34.015Z,99894.78
2023-05-15T14:18:03.253Z,99888.53
2023-05-15T14:20:30.905Z,99897.72
2023-05-15T14:22:58.534Z,99910.94
2023-05-15T14:25:26.813Z,99910.66
2023-05-15T14:27:54.466Z,99915.41
2023-05-15T14:30:22.986Z,99917.88
2023-05-15T14:32:50.762Z,99899.88
2023-05-15T14:35:19.751Z,99904.63
2023-05-15T14:37:47.445Z,99899.25
2023-05-15T14:40:15.034Z,99890.56
2023-05-15T14:42:42.669Z,99905.28
2023-05-15T14:45:10.831Z,99909.34
2023-05-15T14:47:38.477Z,99915.31
2023-05-15T14:50:06.314Z,99911.19
2023-05-15T14:52:35.714Z,99912.97
2023-05-15T14:57:33.949Z,99893.63
2023-05-15T15:00:01.714Z,99898.47
2023-05-15T15:02:29.527Z,99906.91
2023-05-15T15:04:57.841Z,99903.03
2023-05-15T15:07:27.977Z,99915.13
2023-05-15T15:09:56.972Z,99918.66
2023-05-15T15:12:24.632Z,99914.84
2023-05-15T15:14:52.300Z,99920.88
2023-05-15T15:17:19.908Z,99904.41
2023-05-15T15:19:47.503Z,99902.09
2023-05-15T15:22:15.198Z,99906.84
2023-05-15T15:24:42.777Z,99892.03
2023-05-15T15:27:11.788Z,99886.09
2023-05-15T15:29:39.383Z,99901.97
2023-05-15T15:32:07.299Z,99899.47
2023-05-15T15:34:34.958Z,99886.41
2023-05-15T15:37:02.737Z,99886.84
2023-05-15T15:39:30.411Z,99887.47
2023-05-15T15:41:57.997Z,99892.97
2023-05-15T15:44:27.030Z,99892.97
2023-05-15T15:46:54.692Z,99892.88
2023-05-15T15:49:22.351Z,99887.47
2023-05-15T15:51:49.968Z,99884.88
2023-05-15T15:54:17.720Z,99886.38
2023-05-15T15:56:47.746Z,99889.44
2023-05-15T15:59:15.792Z,99891.41
2023-05-15T16:01:45.534Z,99891.50
2023-05-15T16:04:13.352Z,99884.13
2023-05-15T16:06:41.050Z,99891.94
2023-05-15T16:09:08.806Z,99887.06
2023-05-15T16:11:36.661Z,99892.53
2023-05-15T16:14:04.511Z,99888.91
2023-05-15T16:16:32.181Z,99883.94
2023-05-15T16:19:01.380Z,99888.06
2023-05-15T16:21:29.049Z,99883.50
2023-05-15T16:23:56.664Z,99886.03
2023-05-15T16:26:24.316Z,99886.97
2023-05-15T16:28:52.043Z,99884.84
2023-05-15T16:31:20.188Z,99877.50
2023-05-15T16:33:47.898Z,99892.63
2023-05-15T16:36:16.966Z,99889.66
2023-05-15T16:38:44.694Z,99864.53
2023-05-15T16:41:12.455Z,99874.84
2023-05-15T16:43:40.154Z,99881.84
2023-05-15T16:46:07.959Z,99884.75
2023-05-15T16:48:35.692Z,99873.19
2023-05-15T16:51:03.422Z,99871.88
2023-05-15T16:53:32.585Z,99873.16
2023-05-15T16:56:00.378Z,99878.19
2023-05-15T16:58:28.018Z,99868.31
2023-05-15T17:00:55.648Z,99873.72
2023-05-15T17:03:23.419Z,99874.97
2023-05-15T17:05:52.424Z,99871.53
2023-05-15T17:08:20.161Z,99876.25
2023-05-15T17:10:49.197Z,99867.66
2023-05-15T17:13:16.906Z,99863.25
2023-05-15T17:15:47.091Z,99869.16
2023-05-15T17:18:14.802Z,99862.63
2023-05-15T17:20:42.449Z,99864.47
2023-05-15T17:23:10.079Z,99868.31
2023-05-15T17:25:37.807Z,99878.22
2023-05-15T17:28:06.830Z,99879.72
2023-05-15T17:30:34.650Z,99883.78
2023-05-15T17:33:02.433Z,99883.53
2023-05-15T17:35:32.815Z,99887.50
2023-05-15T17:38:00.981Z,99889.28
2023-05-15T17:40:28.564Z,99894.34
2023-05-15T17:42:56.164Z,99898.72
2023-05-15T17:45:25.545Z,99899.38
2023-05-15T17:47:53.326Z,99908.47
2023-05-15T17:50:21.005Z,99916.69
2023-05-15T17:52:48.608Z,99904.16
2023-05-15T17:55:16.359Z,99908.03
2023-05-15T17:57:44.047Z,99915.06
2023-05-15T18:00:12.308Z,99921.78
2023-05-15T18:02:41.264Z,99917.25
2023-05-15T18:05:10.137Z,99920.28
2023-05-15T18:07:37.786Z,99916.06
2023-05-15T18:10:06.565Z,99923.72
2023-05-15T18:12:35.236Z,99925.44
2023-05-15T18:15:03.043Z,99924.69
2023-05-15T18:17:30.756Z,99924.56
2023-05-15T18:19:59.819Z,99923.28
2023-05-15T18:22:27.531Z,99941.34
2023-05-15T18:24:55.161Z,99938.19
2023-05-15T18:27:22.847Z,99937.63
2023-05-15T18:29:51.570Z,99939.78
2023-05-15T18:32:19.904Z,99943.00
2023-05-15T18:34:47.915Z,99952.72
2023-05-15T18:37:16.928Z,99956.13
2023-05-15T18:39:44.555Z,99954.25
2023-05-15T18:42:12.165Z,99961.22
2023-05-15T18:44:41.652Z,99963.16
2023-05-15T18:47:09.495Z,99969.59
2023-05-15T18:49:37.357Z,99970.31
2023-05-15T18:52:05.235Z,99977.38
2023-05-15T18:54:34.212Z,99975.16
2023-05-15T18:57:01.844Z,99979.41
2023-05-15T18:59:30.104Z,99983.19
2023-05-15T19:01:57.825Z,99981.63
2023-05-15T19:04:25.434Z,99981.25
2023-05-15T19:06:53.228Z,99976.03
2023-05-15T19:09:20.904Z,99980.84
2023-05-15T19:11:52.262Z,99989.25
2023-05-15T19:14:19.879Z,99985.97
2023-05-15T19:16:47.611Z,99990.22
2023-05-15T19:19:15.824Z,99990.41
2023-05-15T19:21:43.447Z,99999.75
2023-05-15T19:24:11.499Z,99997.44
2023-05-15T19:26:39.356Z,100012.66
2023-05-15T19:29:08.403Z,100017.41
2023-05-15T19:31:37.375Z,100012.97
2023-05-15T19:34:05.014Z,100011.03
2023-05-15T19:36:32.594Z,100017.00
2023-05-15T19:39:00.241Z,100016.63
2023-05-15T19:41:27.840Z,100022.81
2023-05-15T19:43:55.495Z,100023.09
2023-05-15T19:46:24.520Z,100024.72
2023-05-15T19:48:52.133Z,100026.66
2023-05-15T19:51:19.791Z,100034.16
2023-05-15T19:53:47.459Z,100041.00
2023-05-15T19:56:15.122Z,100051.13
2023-05-15T19:58:42.841Z,100058.91
2023-05-15T20:01:10.692Z,100059.09
2023-05-15T20:03:39.872Z,100068.25
2023-05-15T20:06:07.600Z,100074.59
2023-05-15T20:08:35.229Z,100085.38
2023-05-15T20:11:02.838Z,100081.03
2023-05-15T20:13:30.875Z,100081.59
2023-05-15T20:16:00.715Z,100074.94
2023-05-15T20:18:30.363Z,100082.16
2023-05-15T20:21:01.265Z,100012.50
2023-05-15T20:23:28.898Z,100085.81
2023-05-15T20:25:56.491Z,100085.72
2023-05-15T20:28:25.732Z,100091.00
2023-05-15T20:30:53.392Z,100093.69
2023-05-15T20:33:21.089Z,100098.50
2023-05-15T20:35:51.168Z,100088.75
2023-05-15T20:38:20.743Z,100096.00
2023-05-15T20:40:48.992Z,100100.94
2023-05-15T20:43:16.613Z,100102.34
2023-05-15T20:45:44.257Z,100093.28
2023-05-15T20:48:12.046Z,100094.69
2023-05-15T20:50:40.037Z,100103.19
2023-05-15T20:53:08.090Z,100103.91
2023-05-15T20:55:37.376Z,100107.97
2023-05-15T20:58:05.077Z,100097.56
2023-05-15T21:00:32.851Z,100104.53
2023-05-15T21:03:00.597Z,100105.84
2023-05-15T21:05:28.394Z,100111.59
2023-05-15T21:07:55.988Z,100112.28
2023-05-15T21:10:23.635Z,100120.44
2023-05-15T21:12:52.616Z,100127.16
2023-05-15T21:15:20.382Z,100118.47
2023-05-15T21:17:48.074Z,100127.03
2023-05-15T21:20:15.667Z,100123.56
2023-05-15T21:22:43.334Z,100124.41
2023-05-15T21:25:11.839Z,100126.50
2023-05-15T21:27:39.515Z,100118.97
2023-05-15T21:30:09.470Z,100124.47
2023-05-15T21:32:37.167Z,100132.69
2023-05-15T21:35:04.850Z,100130.78
2023-05-15T21:37:32.656Z,100134.75
2023-05-15T21:40:01.664Z,100130.50
2023-05-15T21:42:29.982Z,100137.44
2023-05-15T21:44:57.580Z,100142.19
2023-05-15T21:47:26.701Z,100141.91
2023-05-15T21:49:54.381Z,100138.41
2023-05-15T21:52:21.962Z,100148.31
2023-05-15T21:54:49.555Z,100157.31
2023-05-15T21:57:17.304Z,100157.13
2023-05-15T21:59:45.025Z,100152.19
2023-05-15T22:02:12.806Z,100150.28
2023-05-15T22:04:42.023Z,100150.28
2023-05-15T22:07:09.788Z,100159.13
2023-05-15T22:09:37.400Z,100163.28
2023-05-15T22:12:05.275Z,100162.25
2023-05-15T22:14:32.908Z,100168.41
2023-05-15T22:17:00.632Z,100177.41
2023-05-15T22:19:33.053Z,100180.97
2023-05-15T22:22:03.393Z,100173.06
2023-05-15T22:24:30.984Z,100176.63
2023-05-15T22:26:58.753Z,100180.66
2023-05-15T22:29:26.621Z,100187.84
2023-05-15T22:31:54.204Z,100195.03
2023-05-15T22:34:21.829Z,100187.97
2023-05-15T22:36:49.444Z,100180.72
2023-05-15T22:39:18.428Z,100182.75
2023-05-15T22:41:46.058Z,100176.03
2023-05-15T22:44:13.647Z,100187.16
2023-05-15T22:46:41.446Z,100188.16
2023-05-15T22:49:09.877Z,100184.16
2023-05-15T22:51:38.480Z,100193.91
2023-05-15T22:54:06.335Z,100197.25
2023-05-15T22:56:35.596Z,100204.38
2023-05-15T22:59:04.539Z,100207.22
2023-05-15T23:01:32.247Z,100211.56
2023-05-15T23:04:00.031Z,100215.41
2023-05-15T23:06:27.775Z,100218.97
2023-05-15T23:08:55.860Z,100210.31
2023-05-15T23:11:24.456Z,100210.59
2023-05-15T23:13:53.457Z,100216.25
2023-05-15T23:16:21.224Z,100217.22
2023-05-15T23:18:48.941Z,100214.97
2023-05-15T23:21:16.603Z,100225.34
2023-05-15T23:23:44.767Z,100223.38
2023-05-15T23:26:12.510Z,100222.31
2023-05-15T23:28:40.365Z,100225.66
2023-05-15T23:31:09.447Z,100222.78
2023-05-15T23:33:37.940Z,100222.16
2023-05-15T23:36:06.026Z,100226.50
2023-05-15T23:38:33.614Z,100234.28
2023-05-15T23:41:01.248Z,100229.06
2023-05-15T23:43:29.625Z,100232.38
2023-05-15T23:45:57.248Z,100234.22
2023-05-15T23:48:26.232Z,100238.41
2023-05-15T23:50:54.556Z,100236.69
2023-05-15T23:53:22.177Z,100239.84
2023-05-15T23:55:49.978Z,100235.38
2023-05-15T23:58:17.799Z,100241.03
